HNL weather

Daniel K Inouye International Airport
Honolulu, Hawaii, United States

Public forecast

Using degrees Fahrenheit for public forecast. Weather courtesy of forecast.io.

METAR (pilot weather report)

Retrieved 2018/01/20 15:53 UTC (40 minutes ago):

PHNL 201553Z 05004KT 10SM FEW022 FEW033 SCT044 23/19 A3003

TAF (pilot weather forecast)

Retrieved 2018/01/20 12:33 UTC (4 hours ago):

TAF PHNL 201131Z 2012/2118 07005KT P6SM VCSH FEW025 BKN045 FM202000 12010KT P6SM VCSH SCT025 BKN045 FM210300 06006KT P6SM VCSH SCT025 BKN040